KRIC/RIC METAR and TAF weather

Enter ICAO airport designator
Station Type Date Time Source
KRIC METAR 2019/08/20 09:54 UTC NOAA

KRIC 200954Z 21004KT 10SM BKN300 23/21 A3007 RMK AO2 SLP184 T02280206


Station Type Date Time Source
KRIC Decoded METAR 2019/08/20 09:54 UTC NOAA

RICHMOND INTERNATIONAL AIRPORT, VA, United States (KRIC) 37-31N 077-19W 50M
Aug 20, 2019 - 05:54 AM EDT / 2019.08.20 0954 UTC
Wind: from the SSW (210 degrees) at 5 MPH (4 KT):0
Visibility: 10 mile(s):0
Sky conditions: mostly cloudy
Temperature: 73.0 F (22.8 C)
Dew Point: 69.1 F (20.6 C)
Relative Humidity: 87%
Pressure (altimeter): 30.07 in. Hg (1018 hPa)
ob: KRIC 200954Z 21004KT 10SM BKN300 23/21 A3007 RMK AO2 SLP184 T02280206
cycle: 10

Station Type Date Time Source
KRIC TAF 2019/08/20 06:22 UTC NOAA

TAF KRIC 200520Z 2006/2106 23005KT P6SM BKN200
TEMPO 2009/2012 4SM BR
FM201400 19006KT P6SM SCT050 BKN250
FM202100 20007KT P6SM BKN050 BKN150
FM210300 23004KT P6SM SCT100 BKN120

Example: see airport list